K2DP

Dare County Gunnery Range Airport

North Carolina, USA
METAR K2DP 231056Z AUTO 23008KT 10SM CLR 22/21 A3004 RMK AO2 SLPNO T02230205 $
Observed Flight Rules
May-23 @ 10:56 UTC (12 minutes ago) Visual Flight Rules
Wind Visibility Clouds
230° at 8 knots 10 miles
  • Clear skies
Temperatures Readings
Current 22°C / 72°F
Dewpoint 21°C / 70°F
Humidity 94%
Altimeter 30.04" Hg
Pressure 1017 hPa
Elevation 3
METAR K2DP 231056Z AUTO 23008KT 10SM CLR 22/21 A3004 RMK AO2 SLPNO T02230205 $
Observed Flight Rules
May-23 @ 10:56 UTC
(12 minutes ago)
VFR
Wind Visibility
230° at 8 knots 10 miles
Clouds
  • Clear skies
Temperature Dewpoint
22°C / 72°F 21°C / 70°F
Humidity Altimeter Pressure
94% 30.04" Hg 1017 hPa